createdAt,value
2022-11-16T00:01:45.581Z,93.64
2022-11-16T00:04:15.465Z,93.85
2022-11-16T00:06:42.382Z,94.41
2022-11-16T00:09:24.114Z,94.50
2022-11-16T00:12:02.748Z,94.84
2022-11-16T00:14:32.248Z,94.47
2022-11-16T00:16:59.983Z,93.94
2022-11-16T00:19:27.471Z,93.82
2022-11-16T00:21:54.623Z,93.57
2022-11-16T00:24:23.432Z,93.45
2022-11-16T00:26:50.709Z,93.16
2022-11-16T00:29:20.258Z,92.90
2022-11-16T00:31:47.709Z,92.88
2022-11-16T00:34:14.897Z,93.24
2022-11-16T00:36:42.023Z,92.77
2022-11-16T00:39:11.870Z,93.33
2022-11-16T00:41:38.754Z,93.43
2022-11-16T00:44:05.989Z,93.32
2022-11-16T00:46:32.883Z,93.43
2022-11-16T00:48:59.626Z,93.86
2022-11-16T00:51:26.721Z,93.65
2022-11-16T00:53:53.654Z,93.56
2022-11-16T00:56:21.332Z,93.34
2022-11-16T00:58:48.113Z,93.13
2022-11-16T01:01:15.675Z,93.12
2022-11-16T01:03:42.966Z,93.03
2022-11-16T01:06:11.633Z,92.40
2022-11-16T01:08:39.708Z,92.44
2022-11-16T01:11:30.895Z,92.46
2022-11-16T01:13:58.712Z,92.72
2022-11-16T01:16:25.463Z,92.82
2022-11-16T01:18:54.639Z,92.75
2022-11-16T01:21:22.691Z,92.92
2022-11-16T01:23:49.865Z,92.70
2022-11-16T01:26:16.796Z,92.55
2022-11-16T01:28:44.137Z,92.84
2022-11-16T01:31:15.541Z,92.81
2022-11-16T01:33:42.438Z,92.79
2022-11-16T01:36:17.509Z,92.81
2022-11-16T01:38:46.645Z,92.21
2022-11-16T01:41:18.568Z,92.34
2022-11-16T01:44:00.233Z,92.55
2022-11-16T01:46:33.136Z,92.84
2022-11-16T01:49:14.471Z,92.87
2022-11-16T01:51:45.148Z,93.32
2022-11-16T01:54:14.218Z,92.99
2022-11-16T01:56:54.146Z,93.50
2022-11-16T01:59:32.048Z,94.16
2022-11-16T02:02:01.283Z,94.07
2022-11-16T02:04:29.905Z,93.87
2022-11-16T02:07:19.572Z,94.19
2022-11-16T02:09:53.742Z,93.96
2022-11-16T02:12:57.802Z,94.11
2022-11-16T02:15:33.538Z,94.09
2022-11-16T02:18:53.209Z,93.66
2022-11-16T02:21:45.002Z,93.33
2022-11-16T02:24:42.324Z,93.25
2022-11-16T02:27:23.636Z,93.10
2022-11-16T02:29:52.795Z,93.29
2022-11-16T02:32:30.396Z,93.08
2022-11-16T02:35:12.301Z,93.01
2022-11-16T02:37:50.631Z,92.92
2022-11-16T02:40:20.894Z,92.91
2022-11-16T02:43:07.397Z,92.92
2022-11-16T02:45:40.614Z,92.63
2022-11-16T02:48:24.675Z,92.62
2022-11-16T02:50:53.440Z,92.71
2022-11-16T02:53:22.083Z,92.73
2022-11-16T02:55:49.036Z,93.09
2022-11-16T02:58:20.833Z,92.89
2022-11-16T03:01:18.333Z,92.95
2022-11-16T03:04:01.621Z,92.72
2022-11-16T03:06:31.568Z,92.76
2022-11-16T03:08:59.008Z,92.90
2022-11-16T03:11:48.926Z,92.88
2022-11-16T03:14:20.626Z,92.87
2022-11-16T03:16:52.966Z,92.76
2022-11-16T03:19:34.004Z,92.88
2022-11-16T03:22:09.847Z,93.07
2022-11-16T03:24:39.158Z,93.14
2022-11-16T03:27:29.366Z,93.22
2022-11-16T03:30:04.928Z,93.87
2022-11-16T03:32:56.589Z,93.87
2022-11-16T03:36:01.934Z,93.36
2022-11-16T03:38:33.601Z,93.39
2022-11-16T03:41:08.474Z,93.42
2022-11-16T03:43:38.098Z,92.96
2022-11-16T03:46:05.846Z,93.42
2022-11-16T03:48:39.209Z,92.89
2022-11-16T03:51:13.264Z,92.92
2022-11-16T03:53:40.775Z,92.88
2022-11-16T03:56:09.385Z,93.35
2022-11-16T03:58:37.777Z,93.96
2022-11-16T04:01:04.776Z,94.08
2022-11-16T04:03:32.117Z,93.46
2022-11-16T04:06:17.793Z,93.82
2022-11-16T04:09:03.281Z,93.90
2022-11-16T04:11:48.789Z,93.81
2022-11-16T04:14:44.739Z,93.79
2022-11-16T04:17:34.984Z,93.93
2022-11-16T04:20:21.066Z,93.54
2022-11-16T04:23:21.960Z,93.56
2022-11-16T04:25:51.197Z,93.96
2022-11-16T04:28:24.291Z,94.30
2022-11-16T04:31:32.943Z,94.30
2022-11-16T04:34:24.822Z,93.62
2022-11-16T04:37:13.831Z,93.22
2022-11-16T04:39:41.250Z,93.40
2022-11-16T04:42:17.474Z,93.32
2022-11-16T04:45:05.042Z,93.37
2022-11-16T04:47:49.148Z,93.14
2022-11-16T04:50:17.664Z,93.44
2022-11-16T04:52:44.389Z,93.22
2022-11-16T04:55:13.535Z,93.35
2022-11-16T04:57:40.562Z,92.92
2022-11-16T05:00:09.071Z,92.73
2022-11-16T05:02:37.580Z,92.94
2022-11-16T05:05:04.890Z,93.18
2022-11-16T05:07:32.713Z,92.88
2022-11-16T05:10:06.846Z,92.90
2022-11-16T05:12:34.685Z,92.80
2022-11-16T05:15:05.900Z,92.93
2022-11-16T05:17:34.096Z,92.80
2022-11-16T05:20:40.483Z,92.78
2022-11-16T05:23:28.166Z,92.72
2022-11-16T05:25:56.864Z,92.89
2022-11-16T05:28:23.590Z,92.77
2022-11-16T05:30:51.252Z,92.72
2022-11-16T05:33:22.228Z,92.83
2022-11-16T05:35:51.646Z,92.80
2022-11-16T05:38:21.390Z,92.86
2022-11-16T05:40:52.173Z,92.87
2022-11-16T05:43:19.005Z,93.17
2022-11-16T05:45:56.286Z,93.61
2022-11-16T05:48:23.287Z,93.25
2022-11-16T05:50:50.141Z,93.26
2022-11-16T05:53:24.829Z,93.32
2022-11-16T05:55:52.093Z,93.24
2022-11-16T05:58:20.249Z,93.20
2022-11-16T06:00:48.940Z,93.06
2022-11-16T06:03:17.625Z,93.09
2022-11-16T06:05:44.549Z,93.06
2022-11-16T06:08:13.983Z,93.00
2022-11-16T06:10:41.395Z,93.10
2022-11-16T06:13:08.386Z,93.29
2022-11-16T06:15:38.262Z,93.27
2022-11-16T06:18:06.755Z,93.22
2022-11-16T06:20:34.784Z,92.90
2022-11-16T06:23:03.517Z,92.80
2022-11-16T06:25:33.790Z,92.92
2022-11-16T06:28:04.100Z,93.18
2022-11-16T06:30:34.512Z,93.17
2022-11-16T06:33:02.739Z,93.19
2022-11-16T06:35:29.924Z,93.22
2022-11-16T06:37:58.030Z,93.55
2022-11-16T06:40:26.212Z,93.29
2022-11-16T06:42:53.426Z,93.15
2022-11-16T06:45:20.841Z,93.19
2022-11-16T06:47:51.446Z,93.50
2022-11-16T06:50:19.410Z,93.27
2022-11-16T06:52:48.577Z,93.11
2022-11-16T06:55:16.926Z,93.03
2022-11-16T06:57:44.058Z,93.11
2022-11-16T07:00:12.843Z,93.00
2022-11-16T07:02:40.519Z,92.89
2022-11-16T07:05:10.996Z,92.81
2022-11-16T07:07:39.447Z,92.56
2022-11-16T07:10:06.568Z,92.36
2022-11-16T07:12:33.464Z,92.17
2022-11-16T07:15:01.654Z,92.09
2022-11-16T07:17:31.317Z,91.74
2022-11-16T07:19:58.190Z,92.11
2022-11-16T07:22:25.506Z,91.93
2022-11-16T07:24:53.546Z,92.28
2022-11-16T07:27:21.299Z,92.01
2022-11-16T07:29:50.628Z,92.24
2022-11-16T07:32:39.929Z,92.05
2022-11-16T07:35:15.559Z,92.11
2022-11-16T07:37:42.639Z,91.98
2022-11-16T07:40:10.765Z,92.16
2022-11-16T07:42:38.802Z,91.87
2022-11-16T07:45:29.041Z,91.89
2022-11-16T07:48:05.428Z,92.08
2022-11-16T07:50:50.839Z,91.92
2022-11-16T07:53:19.220Z,91.75
2022-11-16T07:55:53.043Z,91.90
2022-11-16T07:58:21.668Z,91.67
2022-11-16T08:00:49.395Z,91.89
2022-11-16T08:03:21.799Z,92.01
2022-11-16T08:06:21.264Z,91.93
2022-11-16T08:08:48.312Z,92.14
2022-11-16T08:11:17.641Z,92.24
2022-11-16T08:13:44.906Z,92.11
2022-11-16T08:16:18.207Z,92.22
2022-11-16T08:18:47.239Z,92.22
2022-11-16T08:21:17.205Z,92.01
2022-11-16T08:23:45.485Z,91.85
2022-11-16T08:26:15.912Z,91.82
2022-11-16T08:28:48.491Z,91.99
2022-11-16T08:31:18.323Z,92.22
2022-11-16T08:33:50.491Z,92.04
2022-11-16T08:36:17.865Z,91.58
2022-11-16T08:38:50.421Z,91.50
2022-11-16T08:41:20.501Z,91.62
2022-11-16T08:43:47.838Z,91.54
2022-11-16T08:46:15.532Z,91.71
2022-11-16T08:48:44.624Z,91.59
2022-11-16T08:51:19.278Z,91.97
2022-11-16T08:53:57.502Z,91.89
2022-11-16T08:56:30.225Z,91.51
2022-11-16T08:58:59.167Z,91.63
2022-11-16T09:01:29.521Z,91.30
2022-11-16T09:03:56.646Z,90.59
2022-11-16T09:06:25.815Z,91.26
2022-11-16T09:08:53.321Z,91.09
2022-11-16T09:11:22.659Z,91.06
2022-11-16T09:13:51.600Z,91.41
2022-11-16T09:16:21.032Z,91.29
2022-11-16T09:18:50.073Z,91.86
2022-11-16T09:21:19.123Z,91.76
2022-11-16T09:23:47.108Z,91.33
2022-11-16T09:26:14.493Z,91.87
2022-11-16T09:28:41.377Z,92.20
2022-11-16T09:31:10.086Z,92.28
2022-11-16T09:33:37.065Z,91.71
2022-11-16T09:36:09.163Z,91.68
2022-11-16T09:39:13.324Z,90.84
2022-11-16T09:41:52.300Z,90.46
2022-11-16T09:44:52.877Z,90.26
2022-11-16T09:47:22.650Z,90.04
2022-11-16T09:49:58.186Z,89.46
2022-11-16T09:52:30.445Z,89.97
2022-11-16T09:54:59.968Z,89.49
2022-11-16T09:57:37.249Z,89.95
2022-11-16T10:00:23.734Z,90.64
2022-11-16T10:03:04.093Z,90.82
2022-11-16T10:05:39.072Z,89.95
2022-11-16T10:08:25.156Z,88.71
2022-11-16T10:11:20.849Z,86.04
2022-11-16T10:14:06.032Z,87.10
2022-11-16T10:16:32.859Z,87.32
2022-11-16T10:19:05.430Z,87.46
2022-11-16T10:21:33.159Z,88.12
2022-11-16T10:24:02.521Z,88.33
2022-11-16T10:26:50.631Z,88.11
2022-11-16T10:29:49.867Z,87.91
2022-11-16T10:32:21.168Z,88.15
2022-11-16T10:34:54.008Z,88.06
2022-11-16T10:37:22.430Z,88.16
2022-11-16T10:39:53.355Z,87.98
2022-11-16T10:42:28.901Z,88.33
2022-11-16T10:45:08.158Z,88.83
2022-11-16T10:47:44.867Z,88.86
2022-11-16T10:50:32.631Z,89.21
2022-11-16T10:53:00.899Z,89.46
2022-11-16T10:55:30.593Z,88.85
2022-11-16T10:58:01.576Z,88.66
2022-11-16T11:00:33.788Z,88.22
2022-11-16T11:03:01.096Z,87.81
2022-11-16T11:05:27.941Z,88.12
2022-11-16T11:08:03.697Z,87.57
2022-11-16T11:10:35.652Z,87.92
2022-11-16T11:13:11.543Z,86.83
2022-11-16T11:15:39.945Z,86.83
2022-11-16T11:18:15.609Z,86.94
2022-11-16T11:20:46.158Z,87.00
2022-11-16T11:23:23.758Z,87.11
2022-11-16T11:25:56.566Z,87.37
2022-11-16T11:28:31.952Z,87.72
2022-11-16T11:31:01.306Z,87.78
2022-11-16T11:33:39.639Z,87.96
2022-11-16T11:36:13.343Z,88.23
2022-11-16T11:39:25.566Z,87.98
2022-11-16T11:42:10.796Z,88.31
2022-11-16T11:44:49.753Z,88.63
2022-11-16T11:47:56.608Z,88.84
2022-11-16T11:50:51.083Z,88.85
2022-11-16T11:53:29.936Z,89.15
2022-11-16T11:55:59.825Z,89.53
2022-11-16T11:58:31.122Z,89.41
2022-11-16T12:01:01.035Z,89.36
2022-11-16T12:03:28.048Z,89.85
2022-11-16T12:06:07.758Z,89.93
2022-11-16T12:08:57.011Z,89.34
2022-11-16T12:11:38.110Z,89.68
2022-11-16T12:14:33.407Z,89.22
2022-11-16T12:17:13.482Z,89.53
2022-11-16T12:20:01.839Z,89.26
2022-11-16T12:22:46.830Z,89.07
2022-11-16T12:25:51.143Z,88.48
2022-11-16T12:28:51.318Z,88.09
2022-11-16T12:31:33.441Z,86.63
2022-11-16T12:34:06.122Z,86.11
2022-11-16T12:36:32.842Z,84.16
2022-11-16T12:39:24.476Z,84.66
2022-11-16T12:42:13.268Z,84.05
2022-11-16T12:44:45.892Z,84.18
2022-11-16T12:47:46.869Z,82.99
2022-11-16T12:50:28.870Z,82.42
2022-11-16T12:53:25.753Z,81.96
2022-11-16T12:56:13.986Z,83.21
2022-11-16T12:58:52.700Z,82.62
2022-11-16T13:01:25.704Z,83.80
2022-11-16T13:04:01.502Z,84.29
2022-11-16T13:06:34.796Z,83.44
2022-11-16T13:09:30.895Z,82.81
2022-11-16T13:12:03.380Z,82.02
2022-11-16T13:14:34.952Z,82.51
2022-11-16T13:17:04.253Z,82.37
2022-11-16T13:19:31.895Z,81.84
2022-11-16T13:22:19.497Z,81.53
2022-11-16T13:24:48.850Z,81.37
2022-11-16T13:27:18.285Z,81.71
2022-11-16T13:30:03.799Z,81.44
2022-11-16T13:32:53.341Z,81.43
2022-11-16T13:35:21.029Z,80.73
2022-11-16T13:37:49.251Z,78.99
2022-11-16T13:40:30.995Z,79.97
2022-11-16T13:43:16.858Z,79.20
2022-11-16T13:45:57.294Z,79.83
2022-11-16T13:48:38.519Z,79.73
2022-11-16T13:51:18.986Z,80.82
2022-11-16T13:56:51.050Z,78.98
2022-11-16T13:59:25.409Z,75.66
2022-11-16T14:02:22.713Z,76.07
2022-11-16T14:05:33.948Z,73.61
2022-11-16T14:08:20.840Z,72.96
2022-11-16T14:10:50.673Z,72.93
2022-11-16T14:13:47.366Z,73.50
2022-11-16T14:16:20.190Z,73.69
2022-11-16T14:18:59.026Z,72.04
2022-11-16T14:21:26.776Z,71.74
2022-11-16T14:24:06.230Z,70.75
2022-11-16T14:27:17.032Z,71.93
2022-11-16T14:30:02.962Z,72.07
2022-11-16T14:32:43.495Z,71.07
2022-11-16T14:35:29.675Z,70.97
2022-11-16T14:38:02.394Z,71.36
2022-11-16T14:40:29.494Z,71.77
2022-11-16T14:43:15.921Z,70.70
2022-11-16T14:45:48.251Z,69.57
2022-11-16T14:48:17.739Z,71.62
2022-11-16T14:50:57.899Z,71.57
2022-11-16T14:53:26.479Z,70.79
2022-11-16T14:56:06.452Z,70.82
2022-11-16T14:58:33.309Z,71.77
2022-11-16T15:01:02.940Z,70.65
2022-11-16T15:03:35.540Z,70.69
2022-11-16T15:06:04.793Z,70.57
2022-11-16T15:08:58.123Z,71.22
2022-11-16T15:11:50.198Z,72.09
2022-11-16T15:14:22.723Z,71.22
2022-11-16T15:16:54.472Z,71.61
2022-11-16T15:19:22.112Z,72.73
2022-11-16T15:21:58.211Z,73.42
2022-11-16T15:24:32.184Z,72.74
2022-11-16T15:27:08.525Z,72.45
2022-11-16T15:29:36.286Z,72.18
2022-11-16T15:32:03.412Z,73.26
2022-11-16T15:34:31.479Z,73.93
2022-11-16T15:36:58.302Z,74.22
2022-11-16T15:39:32.334Z,74.53
2022-11-16T15:42:03.717Z,74.11
2022-11-16T15:44:31.980Z,73.72
2022-11-16T15:46:59.505Z,72.41
2022-11-16T15:49:32.447Z,73.31
2022-11-16T15:52:00.139Z,71.96
2022-11-16T15:54:54.971Z,72.30
2022-11-16T15:57:24.049Z,72.85
2022-11-16T15:59:57.272Z,73.00
2022-11-16T16:02:29.914Z,72.73
2022-11-16T16:04:56.934Z,73.49
2022-11-16T16:07:41.855Z,72.88
2022-11-16T16:10:13.207Z,71.44
2022-11-16T16:13:00.646Z,72.59
2022-11-16T16:15:36.585Z,72.99
2022-11-16T16:18:13.963Z,73.21
2022-11-16T16:20:48.838Z,74.11
2022-11-16T16:23:16.448Z,74.07
2022-11-16T16:25:49.077Z,75.96
2022-11-16T16:28:17.407Z,76.15
2022-11-16T16:30:44.342Z,75.34
2022-11-16T16:33:19.654Z,77.02
2022-11-16T16:35:49.891Z,77.07
2022-11-16T16:38:17.213Z,77.65
2022-11-16T16:40:44.088Z,78.88
2022-11-16T16:43:11.087Z,79.00
2022-11-16T16:45:41.664Z,78.91
2022-11-16T16:48:09.707Z,79.50
2022-11-16T16:50:37.393Z,79.17
2022-11-16T16:53:05.021Z,79.53
2022-11-16T16:55:36.974Z,79.49
2022-11-16T16:58:04.976Z,80.19
2022-11-16T17:00:32.413Z,80.53
2022-11-16T17:02:59.497Z,80.73
2022-11-16T17:05:27.115Z,80.99
2022-11-16T17:07:56.926Z,80.38
2022-11-16T17:10:24.384Z,79.82
2022-11-16T17:12:55.282Z,79.75
2022-11-16T17:15:22.904Z,79.52
2022-11-16T17:17:50.485Z,79.38
2022-11-16T17:20:17.853Z,78.71
2022-11-16T17:22:45.289Z,78.87
2022-11-16T17:25:12.630Z,78.49
2022-11-16T17:27:39.500Z,79.07
2022-11-16T17:30:07.375Z,79.02
2022-11-16T17:32:34.807Z,79.12
2022-11-16T17:35:01.836Z,78.82
2022-11-16T17:37:28.790Z,79.22
2022-11-16T17:39:55.875Z,79.72
2022-11-16T17:42:23.116Z,80.66
2022-11-16T17:44:50.095Z,80.69
2022-11-16T17:47:17.109Z,80.30
2022-11-16T17:49:44.221Z,80.96
2022-11-16T17:52:11.309Z,80.95
2022-11-16T17:54:38.358Z,81.04
2022-11-16T17:57:05.437Z,81.11
2022-11-16T17:59:32.986Z,80.79
2022-11-16T18:01:59.832Z,81.37
2022-11-16T18:04:34.593Z,81.16
2022-11-16T18:07:01.807Z,80.35
2022-11-16T18:09:29.079Z,80.30
2022-11-16T18:11:56.180Z,80.51
2022-11-16T18:14:23.085Z,81.21
2022-11-16T18:16:50.161Z,82.29
2022-11-16T18:19:19.253Z,81.87
2022-11-16T18:21:46.835Z,82.35
2022-11-16T18:24:13.957Z,82.17
2022-11-16T18:26:41.458Z,82.22
2022-11-16T18:29:15.924Z,82.12
2022-11-16T18:31:43.485Z,82.07
2022-11-16T18:34:15.775Z,81.48
2022-11-16T18:36:43.803Z,81.12
2022-11-16T18:39:10.841Z,81.43
2022-11-16T18:41:43.936Z,81.39
2022-11-16T18:44:14.981Z,80.81
2022-11-16T18:46:43.366Z,80.84
2022-11-16T18:49:10.331Z,80.68
2022-11-16T18:51:37.141Z,81.45
2022-11-16T18:54:04.138Z,82.10
2022-11-16T18:56:31.102Z,82.49
2022-11-16T18:58:57.804Z,83.33
2022-11-16T19:01:26.763Z,83.73
2022-11-16T19:03:56.163Z,83.74
2022-11-16T19:06:24.052Z,84.42
2022-11-16T19:09:03.992Z,84.91
2022-11-16T19:11:31.216Z,84.43
2022-11-16T19:14:00.892Z,83.73
2022-11-16T19:16:28.372Z,83.70
2022-11-16T19:18:55.222Z,83.57
2022-11-16T19:21:22.945Z,82.15
2022-11-16T19:23:52.279Z,82.31
2022-11-16T19:26:21.084Z,82.95
2022-11-16T19:28:49.896Z,82.93
2022-11-16T19:31:23.553Z,82.37
2022-11-16T19:33:59.951Z,82.79
2022-11-16T19:36:28.568Z,82.73
2022-11-16T19:38:56.293Z,83.41
2022-11-16T19:41:24.110Z,83.52
2022-11-16T19:43:59.911Z,83.14
2022-11-16T19:46:33.170Z,83.02
2022-11-16T19:49:01.342Z,83.13
2022-11-16T19:51:30.306Z,82.80
2022-11-16T19:54:02.507Z,83.29
2022-11-16T19:56:34.414Z,82.66
2022-11-16T19:59:01.471Z,82.85
2022-11-16T20:01:33.003Z,82.85
2022-11-16T20:04:03.499Z,82.24
2022-11-16T20:06:55.613Z,82.15
2022-11-16T20:09:23.628Z,82.40
2022-11-16T20:11:50.582Z,82.43
2022-11-16T20:14:17.897Z,82.99
2022-11-16T20:16:47.790Z,81.95
2022-11-16T20:19:15.887Z,82.60
2022-11-16T20:21:48.111Z,82.63
2022-11-16T20:24:16.541Z,82.35
2022-11-16T20:26:46.826Z,81.96
2022-11-16T20:29:17.677Z,83.51
2022-11-16T20:31:46.284Z,83.56
2022-11-16T20:34:16.603Z,83.09
2022-11-16T20:37:08.785Z,83.32
2022-11-16T20:39:36.298Z,83.40
2022-11-16T20:42:03.388Z,83.17
2022-11-16T20:44:31.487Z,83.14
2022-11-16T20:46:58.746Z,84.57
2022-11-16T20:49:26.279Z,84.74
2022-11-16T20:51:53.625Z,84.34
2022-11-16T20:54:21.603Z,83.37
2022-11-16T20:56:49.987Z,83.62
2022-11-16T20:59:17.444Z,83.39
2022-11-16T21:01:47.882Z,83.18
2022-11-16T21:04:16.117Z,84.19
2022-11-16T21:06:43.100Z,84.28
2022-11-16T21:09:23.037Z,85.05
2022-11-16T21:12:09.472Z,85.36
2022-11-16T21:14:37.528Z,85.37
2022-11-16T21:17:04.971Z,85.12
2022-11-16T21:19:32.857Z,83.94
2022-11-16T21:21:59.721Z,84.53
2022-11-16T21:24:28.637Z,84.14
2022-11-16T21:26:55.576Z,83.91
2022-11-16T21:29:26.120Z,84.78
2022-11-16T21:31:55.187Z,84.70
2022-11-16T21:34:24.696Z,84.79
2022-11-16T21:36:52.792Z,84.94
2022-11-16T21:39:19.584Z,85.60
2022-11-16T21:41:47.303Z,85.67
2022-11-16T21:44:14.158Z,85.32
2022-11-16T21:46:43.678Z,84.87
2022-11-16T21:49:11.053Z,84.17
2022-11-16T21:51:38.074Z,84.49
2022-11-16T21:54:06.709Z,84.64
2022-11-16T21:56:33.789Z,84.50
2022-11-16T21:59:01.707Z,84.23
2022-11-16T22:01:48.797Z,84.58
2022-11-16T22:04:51.552Z,84.23
2022-11-16T22:07:33.936Z,84.45
2022-11-16T22:10:02.047Z,84.79
2022-11-16T22:12:29.559Z,84.60
2022-11-16T22:14:59.002Z,84.01
2022-11-16T22:17:26.514Z,84.03
2022-11-16T22:19:53.897Z,84.04
2022-11-16T22:22:21.274Z,83.57
2022-11-16T22:24:48.471Z,83.46
2022-11-16T22:27:18.937Z,83.67
2022-11-16T22:29:47.041Z,84.82
2022-11-16T22:32:13.980Z,85.08
2022-11-16T22:34:41.020Z,84.59
2022-11-16T22:37:07.803Z,84.49
2022-11-16T22:39:34.907Z,84.85
2022-11-16T22:42:01.773Z,85.09
2022-11-16T22:44:30.312Z,84.99
2022-11-16T22:46:57.100Z,85.24
2022-11-16T22:49:49.008Z,85.29
2022-11-16T22:52:17.854Z,85.28
2022-11-16T22:54:44.685Z,85.14
2022-11-16T22:57:15.564Z,84.98
2022-11-16T22:59:43.394Z,84.92
2022-11-16T23:02:10.082Z,85.19
2022-11-16T23:04:37.108Z,84.54
2022-11-16T23:07:03.917Z,83.83
2022-11-16T23:09:32.848Z,83.98
2022-11-16T23:12:18.171Z,83.97
2022-11-16T23:15:03.971Z,84.62
2022-11-16T23:17:30.974Z,85.07
2022-11-16T23:20:17.764Z,85.69
2022-11-16T23:23:03.510Z,85.58
2022-11-16T23:25:48.776Z,85.86
2022-11-16T23:28:16.871Z,85.96
2022-11-16T23:30:43.914Z,86.13
2022-11-16T23:33:13.367Z,86.00
2022-11-16T23:35:40.161Z,85.75
2022-11-16T23:38:08.400Z,85.83
2022-11-16T23:40:39.891Z,86.17
2022-11-16T23:43:28.751Z,85.78
2022-11-16T23:45:55.731Z,85.91
2022-11-16T23:48:22.492Z,85.97
2022-11-16T23:50:50.188Z,85.98
2022-11-16T23:53:16.944Z,85.96
2022-11-16T23:55:43.959Z,85.78
2022-11-16T23:58:14.846Z,85.70
